createdAt,value
2022-11-21T00:12:09.699Z,29.10
2022-11-21T00:17:11.989Z,32.97
2022-11-21T00:22:14.304Z,32.87
2022-11-21T00:27:16.577Z,40.30
2022-11-21T00:32:18.885Z,38.90
2022-11-21T00:37:21.168Z,40.83
2022-11-21T00:42:24.070Z,35.00
2022-11-21T00:47:26.361Z,33.53
2022-11-21T00:52:28.659Z,31.27
2022-11-21T00:57:30.931Z,31.37
2022-11-21T01:02:33.588Z,34.40
2022-11-21T01:07:36.402Z,34.27
2022-11-21T01:12:38.740Z,31.27
2022-11-21T01:17:41.355Z,27.67
2022-11-21T01:22:43.638Z,30.20
2022-11-21T01:27:46.080Z,31.00
2022-11-21T01:32:50.037Z,31.10
2022-11-21T01:37:52.412Z,30.13
2022-11-21T01:42:58.404Z,29.67
2022-11-21T01:48:00.799Z,28.77
2022-11-21T01:53:03.115Z,23.73
2022-11-21T01:58:06.075Z,22.53
2022-11-21T02:03:14.282Z,23.77
2022-11-21T02:08:20.473Z,19.80
2022-11-21T02:13:23.297Z,21.70
2022-11-21T02:18:25.661Z,20.87
2022-11-21T02:23:43.335Z,22.67
2022-11-21T02:28:45.703Z,20.47
2022-11-21T02:33:47.974Z,21.87
2022-11-21T02:38:50.326Z,20.87
2022-11-21T02:44:20.768Z,23.93
2022-11-21T02:49:42.316Z,22.03
2022-11-21T02:54:44.709Z,20.40
2022-11-21T02:59:47.127Z,23.00
2022-11-21T03:04:49.398Z,19.63
2022-11-21T03:09:51.682Z,20.90
2022-11-21T03:14:53.960Z,20.03
2022-11-21T03:19:56.222Z,20.03
2022-11-21T03:24:58.620Z,19.87
2022-11-21T03:30:00.887Z,20.30
2022-11-21T03:35:03.266Z,20.10
2022-11-21T03:40:06.254Z,18.17
2022-11-21T03:45:09.108Z,18.23
2022-11-21T03:50:12.112Z,17.47
2022-11-21T03:55:15.294Z,17.20
2022-11-21T04:00:17.819Z,18.13
2022-11-21T04:05:20.125Z,17.47
2022-11-21T04:10:22.481Z,20.63
2022-11-21T04:15:24.829Z,18.00
2022-11-21T04:20:27.187Z,19.47
2022-11-21T04:25:29.662Z,21.23
2022-11-21T04:30:34.296Z,23.63
2022-11-21T04:35:36.634Z,21.73
2022-11-21T04:40:39.019Z,22.50
2022-11-21T04:45:41.386Z,23.03
2022-11-21T04:50:44.941Z,20.63
2022-11-21T04:55:47.266Z,31.73
2022-11-21T05:00:49.635Z,29.47
2022-11-21T05:05:51.934Z,29.03
2022-11-21T05:11:12.697Z,28.30
2022-11-21T05:16:14.974Z,23.33
2022-11-21T05:21:17.320Z,27.43
2022-11-21T05:26:19.653Z,23.93
2022-11-21T05:31:21.947Z,25.87
2022-11-21T05:36:24.256Z,25.23
2022-11-21T05:41:26.549Z,23.13
2022-11-21T05:46:28.851Z,21.40
2022-11-21T05:51:31.134Z,20.73
2022-11-21T05:56:33.581Z,21.87
2022-11-21T06:01:54.198Z,24.23
2022-11-21T06:06:56.476Z,27.60
2022-11-21T06:11:58.786Z,31.77
2022-11-21T06:17:01.069Z,28.93
2022-11-21T06:22:03.359Z,22.83
2022-11-21T06:27:05.660Z,25.17
2022-11-21T06:32:08.057Z,26.73
2022-11-21T06:37:10.367Z,28.63
2022-11-21T06:42:12.628Z,28.83
2022-11-21T06:47:14.933Z,26.33
2022-11-21T06:52:17.244Z,24.17
2022-11-21T06:57:19.518Z,24.40
2022-11-21T07:02:21.832Z,28.17
2022-11-21T07:07:24.242Z,24.40
2022-11-21T07:12:45.088Z,40.93
2022-11-21T07:17:47.392Z,25.83
2022-11-21T07:22:53.473Z,27.20
2022-11-21T07:27:59.039Z,28.70
2022-11-21T07:33:04.007Z,26.20
2022-11-21T07:38:06.362Z,28.93
2022-11-21T07:43:11.169Z,28.67
2022-11-21T07:48:13.575Z,27.47
2022-11-21T07:53:15.887Z,31.33
2022-11-21T07:58:18.367Z,29.83
2022-11-21T08:03:20.724Z,31.63
2022-11-21T08:08:25.060Z,34.20
2022-11-21T08:13:30.589Z,32.67
2022-11-21T08:18:33.618Z,36.83
2022-11-21T08:23:35.908Z,39.40
2022-11-21T08:28:38.214Z,36.77
2022-11-21T08:33:41.148Z,38.80
2022-11-21T08:38:43.431Z,40.33
2022-11-21T08:43:45.878Z,41.83
2022-11-21T08:48:49.433Z,42.87
2022-11-21T08:53:51.873Z,43.37
2022-11-21T08:58:54.641Z,39.90
2022-11-21T09:03:56.912Z,39.73
2022-11-21T09:08:59.218Z,37.13
2022-11-21T09:14:19.854Z,38.13
2022-11-21T09:19:22.978Z,38.70
2022-11-21T09:24:27.367Z,43.27
2022-11-21T09:29:29.891Z,47.53
2022-11-21T09:34:41.754Z,44.63
2022-11-21T09:39:44.034Z,38.07
2022-11-21T09:44:52.332Z,36.63
2022-11-21T09:50:01.784Z,35.73
2022-11-21T09:55:16.346Z,41.80
2022-11-21T10:00:27.773Z,39.17
2022-11-21T10:05:40.529Z,37.67
2022-11-21T10:10:49.882Z,36.57
2022-11-21T10:16:07.031Z,46.00
2022-11-21T10:21:24.460Z,34.37
2022-11-21T10:26:50.399Z,40.30
2022-11-21T10:31:57.351Z,37.53
2022-11-21T10:37:11.812Z,44.83
2022-11-21T10:42:28.891Z,37.90
2022-11-21T10:47:34.257Z,42.07
2022-11-21T10:52:44.792Z,36.13
2022-11-21T10:57:49.465Z,41.67
2022-11-21T11:03:07.897Z,33.83
2022-11-21T11:08:14.859Z,39.10
2022-11-21T11:13:50.639Z,61.03
2022-11-21T11:19:01.073Z,37.70
2022-11-21T11:24:21.596Z,61.33
2022-11-21T11:29:32.445Z,61.53
2022-11-21T11:34:49.059Z,186.53
2022-11-21T11:40:08.207Z,90.93
2022-11-21T11:45:32.233Z,41.03
2022-11-21T11:50:41.398Z,50.57
2022-11-21T11:56:05.191Z,44.80
2022-11-21T12:01:21.171Z,53.97
2022-11-21T12:07:04.174Z,47.90
2022-11-21T12:12:08.063Z,41.73
2022-11-21T12:17:11.656Z,48.07
2022-11-21T12:22:14.020Z,47.80
2022-11-21T12:27:32.192Z,60.20
2022-11-21T12:32:34.581Z,55.03
2022-11-21T12:37:47.209Z,51.03
2022-11-21T12:43:09.550Z,50.90
2022-11-21T12:48:46.971Z,46.03
2022-11-21T12:54:12.121Z,46.20
2022-11-21T12:59:15.279Z,65.50
2022-11-21T13:04:30.583Z,41.40
2022-11-21T13:09:40.064Z,45.50
2022-11-21T13:14:53.110Z,42.57
2022-11-21T13:20:20.435Z,55.93
2022-11-21T13:25:31.950Z,48.93
2022-11-21T13:30:34.801Z,44.00
2022-11-21T13:35:52.545Z,45.00
2022-11-21T13:41:13.331Z,183.00
2022-11-21T13:46:53.988Z,108.93
2022-11-21T13:51:56.677Z,44.90
2022-11-21T13:57:05.410Z,55.33
2022-11-21T14:02:29.771Z,50.93
2022-11-21T14:07:37.237Z,55.20
2022-11-21T14:12:44.818Z,54.57
2022-11-21T14:17:54.936Z,49.57
2022-11-21T14:23:06.457Z,49.43
2022-11-21T14:28:12.972Z,41.70
2022-11-21T14:33:26.317Z,78.20
2022-11-21T14:38:30.284Z,65.70
2022-11-21T14:43:33.474Z,60.37
2022-11-21T14:48:35.815Z,60.20
2022-11-21T14:53:42.864Z,61.07
2022-11-21T14:58:45.356Z,47.00
2022-11-21T15:04:04.769Z,47.83
2022-11-21T15:14:39.246Z,40.87
2022-11-21T15:19:42.481Z,55.60
2022-11-21T15:24:44.766Z,63.30
2022-11-21T15:29:47.098Z,69.73
2022-11-21T15:34:50.179Z,40.63
2022-11-21T15:39:53.665Z,37.17
2022-11-21T15:45:20.797Z,42.40
2022-11-21T15:50:24.952Z,62.60
2022-11-21T15:55:30.104Z,132.67
2022-11-21T16:00:32.395Z,74.97
2022-11-21T16:05:34.666Z,79.63
2022-11-21T16:10:37.132Z,55.70
2022-11-21T16:15:39.838Z,72.60
2022-11-21T16:20:42.161Z,83.80
2022-11-21T16:26:11.611Z,46.77
2022-11-21T16:31:25.369Z,40.17
2022-11-21T16:36:30.363Z,45.23
2022-11-21T16:41:32.817Z,49.43
2022-11-21T16:46:35.113Z,46.90
2022-11-21T16:51:38.614Z,40.43
2022-11-21T16:56:40.962Z,42.80
2022-11-21T17:01:43.411Z,45.10
2022-11-21T17:06:48.836Z,40.33
2022-11-21T17:11:51.135Z,54.90
2022-11-21T17:16:53.455Z,71.83
2022-11-21T17:21:56.549Z,60.47
2022-11-21T17:27:01.124Z,53.83
2022-11-21T17:32:03.452Z,66.83
2022-11-21T17:37:05.999Z,65.60
2022-11-21T17:42:08.352Z,72.37
2022-11-21T17:47:10.908Z,60.47
2022-11-21T17:52:13.274Z,94.50
2022-11-21T17:57:15.663Z,81.23
2022-11-21T18:02:18.351Z,63.23
2022-11-21T18:07:20.831Z,58.60
2022-11-21T18:12:23.281Z,56.47
2022-11-21T18:17:25.695Z,40.53
2022-11-21T18:22:29.609Z,38.23
2022-11-21T18:27:32.273Z,44.83
2022-11-21T18:32:35.373Z,23.53
2022-11-21T18:37:38.274Z,22.07
2022-11-21T18:42:40.627Z,39.27
2022-11-21T18:47:43.127Z,51.97
2022-11-21T18:52:47.001Z,43.83
2022-11-21T18:57:49.537Z,40.47
2022-11-21T19:02:51.900Z,43.80
2022-11-21T19:07:54.281Z,27.37
2022-11-21T19:12:56.622Z,37.03
2022-11-21T19:17:59.003Z,36.97
2022-11-21T19:23:01.788Z,66.67
2022-11-21T19:28:04.289Z,56.47
2022-11-21T19:33:06.597Z,36.13
2022-11-21T19:38:09.364Z,61.40
2022-11-21T19:43:11.754Z,52.90
2022-11-21T19:48:14.081Z,36.93
2022-11-21T19:53:16.472Z,29.27
2022-11-21T19:58:19.020Z,49.67
2022-11-21T20:03:21.946Z,31.83
2022-11-21T20:08:24.344Z,26.43
2022-11-21T20:13:26.656Z,24.27
2022-11-21T20:18:29.242Z,21.50
2022-11-21T20:23:31.533Z,26.93
2022-11-21T20:28:35.087Z,29.33
2022-11-21T20:33:43.141Z,29.03
2022-11-21T20:38:50.417Z,30.73
2022-11-21T20:49:22.484Z,28.17
2022-11-21T20:54:25.005Z,25.47
2022-11-21T20:59:27.668Z,36.23
2022-11-21T21:04:30.248Z,48.13
2022-11-21T21:09:32.583Z,29.97
2022-11-21T21:14:34.927Z,27.57
2022-11-21T21:19:37.201Z,31.10
2022-11-21T21:24:39.474Z,38.07
2022-11-21T21:29:41.746Z,29.90
2022-11-21T21:34:44.000Z,28.77
2022-11-21T21:39:46.269Z,27.57
2022-11-21T21:44:48.570Z,26.20
2022-11-21T21:49:51.262Z,24.00
2022-11-21T21:54:53.577Z,26.67
2022-11-21T21:59:55.855Z,24.77
2022-11-21T22:04:58.122Z,24.53
2022-11-21T22:10:02.091Z,24.03
2022-11-21T22:15:04.728Z,24.37
2022-11-21T22:20:07.630Z,26.80
2022-11-21T22:25:10.037Z,23.77
2022-11-21T22:30:14.420Z,24.37
2022-11-21T22:35:16.722Z,25.90
2022-11-21T22:40:19.282Z,25.47
2022-11-21T22:45:21.583Z,25.93
2022-11-21T22:50:23.889Z,24.77
2022-11-21T22:55:26.152Z,25.97
2022-11-21T23:00:28.597Z,30.03
2022-11-21T23:05:30.943Z,27.50
2022-11-21T23:10:33.243Z,28.73
2022-11-21T23:15:35.516Z,26.47
2022-11-21T23:20:37.879Z,25.60
2022-11-21T23:25:40.254Z,26.13
2022-11-21T23:30:45.538Z,25.17
2022-11-21T23:35:48.062Z,24.63
2022-11-21T23:40:50.571Z,25.43
2022-11-21T23:45:53.947Z,24.97
2022-11-21T23:50:57.356Z,23.20
2022-11-21T23:55:59.631Z,23.80
